Airfield :
LOGIN :

Register | Disclaimer

   EN    FR    IT 

 










Legend :    VFR   Marginal VFR   IFR   Intensive IFR   Very Intensive IFR
Visi :
Ceiling :
>= 8 km
>= 3000ft
5 to 8 km
1000 to 3000 ft
1500m to 5 km
500 to 1000 ft
800 to 1500m
200 to 500 ft
< 800m
< 200 ft
Symbols :   Thunderstorms  Fog  Heavy snow  Heavy precipitations  Wind > 20 kt
SIGMETs :     Misc.  Thunderstorms  Icing  Turbulence  Mountain Waves  Volcanic Ashes







- Airport Elevation : 614 ft
- IATA code : CRL


EBCI - Charleroi

CURRENT METAR :
  • 140350Z 25017G28KT 9999 FEW030 03/M01 Q0994 TEMPO 20018G30KT

EXPIRED METARs :
  • 140320Z 25022G33KT 9999 FEW028 SCT048 04/M00 Q0994 TEMPO 20018G30KT
  • 140250Z 25020G30KT 9999 FEW010 BKN048 04/00 Q0993 TEMPO 20020G35KT
  • 140220Z 25020KT 9999 FEW007 BKN010 04/01 Q0992 TEMPO 20020G35KT 2500 SHRASN BKN005
  • 140150Z 24021G32KT 9999 FEW007 BKN010 03/02 Q0992 TEMPO 20020G35KT 2500 SHRASN BKN005
  • 140120Z 24019KT 9999 -SHRASN FEW005 BKN010 02/01 Q0991 TEMPO 20020G35KT 2500 SHRASN BKN005

TAF TAF EBCI
Valid from the 14 at 00:00 until the 15 at 06:00 UTC


132310Z 1400/1506 26020KT 9999 SCT014 BKN030
TEMPO 1400/1402 26025G45KT 3000 SHRASN BKN003 BKN010CB
TEMPO 1402/1411 23020G35KT
PROB40
TEMPO 1407/1414 3000 SHSNRA BKN005 BKN010CB
BECMG 1410/1412 23010KT
PROB40
TEMPO 1418/1421 3000 SHSNRAGS BKN006 BKN010CB
TEMPO 1422/1506 2500 -RASN BKN003
No reported NOTAMs for that airfield.
1 SIGMET reported for the Brussels FIR (EBBU) :
 
Severe turbulence
EBBU SIGMET 05 VALID 140000/140400 EBBR
EBBU BRUSSELS FIR SEV TURB FCST ENTIRE FIR SFC/FL050 STNR WKN=



MET'MAP, your aeronautical weather chart ! - Copyright ORBIFLY December 2007 - Disclaimer

ORBIFLY MET'MAP TEAM :

Programming & Development : Alexandra Zaïnal
Concept & Development : Baudouin d'Aumeries
Co-Development & Prog : Marc-Olivier Méhu
Technical & hardware support : Manuel Goepfert

Contact : metmap@orbifly.com




SOURCES & CREDITS :

   NOAA